Terminal Aerodrome Forecast
Issued by NWS Newport/Morehead City, NC

Home | Current Version | Previous Version | Graphics & Text | Print | Product List | Glossary Off
Versions: 1 2 3 4 5 6 7 8 9 10 11 12 13 14 15 16 17 18 19 20 21

000
FTUS42 KMHX 241121
TAFEWN
TAF
KEWN 241121Z 2412/2512 24005KT P6SM BKN009
     FM241400 23005KT P6SM OVC025
     FM241700 20010KT P6SM VCSH OVC025
      TEMPO 2417/2420 4SM TS OVC015CB
     FM242000 20010KT 6SM -TSRA OVC025CB
     FM250000 19010KT 6SM -SHRA OVC025
     FM250200 19010KT 6SM -SHRA OVC015
     FM251000 21010KT 6SM -SHRA BKN025=

USA.gov is the U.S. government's official web portal to all federal, state and local government web resources and services.